CheckWX is a tool to help pilots better visualize weather data.  It is not intended as a substitute for an official pre-flight weather briefing.

16:59:40 UTC

EFKI METAR
Kajaani Airport
Kajaani, Finland
Current

40 mins ago

EFKI 191620Z AUTO 33008KT 300V360 CAVOK 06/M01 Q1012
Observed
Sep-19 @ 16:20 UTC
Wind
  • 330° at 8 KTS
Visibility
10,000+ meters
Flight Rules
VFR
Cloud Levels
  • Clear skies
Temperature
C / 43°F
Dewpoint
-1°C / 30°F
Humidity
61%
Altimeter
29.88" Hg
Pressure
1011.92 hPa
Previous

1 hour ago

EFKI 191550Z AUTO 32008KT 290V350 9999 SCT048 06/M02 Q1012
Observed
Sep-19 @ 15:50 UTC
Wind
  • 320° at 8 KTS
Visibility
10,000+ meters
Flight Rules
VFR
Cloud Levels
  • Scattered at 4,800' AGL
Temperature
C / 43°F
Dewpoint
-2°C / 28°F
Humidity
57%
Altimeter
29.88" Hg
Pressure
1011.92 hPa
Previous

2 hours ago

EFKI 191520Z AUTO 33007KT CAVOK 06/M02 Q1012
Observed
Sep-19 @ 15:20 UTC
Wind
  • 330° at 7 KTS
Visibility
10,000+ meters
Flight Rules
VFR
Cloud Levels
  • Clear skies
Temperature
C / 43°F
Dewpoint
-2°C / 28°F
Humidity
57%
Altimeter
29.88" Hg
Pressure
1011.92 hPa